createdAt,value
2022-08-14T00:01:59.135Z,25.30
2022-08-14T00:04:34.230Z,25.30
2022-08-14T00:07:03.206Z,25.20
2022-08-14T00:09:33.044Z,25.20
2022-08-14T00:12:00.915Z,25.20
2022-08-14T00:14:29.210Z,25.20
2022-08-14T00:16:56.980Z,25.10
2022-08-14T00:19:25.240Z,25.10
2022-08-14T00:21:56.661Z,25.10
2022-08-14T00:24:28.993Z,25.10
2022-08-14T00:27:02.261Z,25.20
2022-08-14T00:29:33.198Z,25.00
2022-08-14T00:32:52.914Z,25.30
2022-08-14T00:35:01.093Z,25.40
2022-08-14T00:37:31.989Z,25.40
2022-08-14T00:40:00.742Z,25.30
2022-08-14T00:42:52.924Z,25.40
2022-08-14T00:45:19.313Z,25.40
2022-08-14T00:47:50.571Z,25.40
2022-08-14T00:50:20.263Z,25.30
2022-08-14T00:52:53.557Z,25.30
2022-08-14T00:55:23.393Z,25.40
2022-08-14T00:58:11.878Z,25.30
2022-08-14T01:00:45.513Z,25.30
2022-08-14T01:03:20.272Z,25.20
2022-08-14T01:05:52.245Z,25.20
2022-08-14T01:08:51.458Z,25.30
2022-08-14T01:11:19.433Z,25.20
2022-08-14T01:13:55.892Z,25.20
2022-08-14T01:16:31.188Z,25.20
2022-08-14T01:19:17.202Z,25.20
2022-08-14T01:21:52.968Z,25.20
2022-08-14T01:24:24.743Z,25.20
2022-08-14T01:27:00.930Z,25.30
2022-08-14T01:29:51.222Z,25.20
2022-08-14T01:32:22.868Z,25.10
2022-08-14T01:35:19.688Z,25.10
2022-08-14T01:37:46.925Z,25.10
2022-08-14T01:40:25.614Z,24.90
2022-08-14T01:43:02.671Z,24.90
2022-08-14T01:45:31.539Z,24.90
2022-08-14T01:48:13.723Z,25.00
2022-08-14T01:50:42.510Z,25.00
2022-08-14T01:53:12.487Z,24.90
2022-08-14T01:56:18.789Z,24.90
2022-08-14T01:58:57.293Z,24.90
2022-08-14T02:01:26.806Z,24.80
2022-08-14T02:04:01.889Z,24.90
2022-08-14T02:06:35.662Z,24.70
2022-08-14T02:11:48.624Z,24.70
2022-08-14T02:14:31.180Z,24.80
2022-08-14T02:17:00.131Z,24.70
2022-08-14T02:19:31.589Z,24.60
2022-08-14T02:22:03.408Z,24.70
2022-08-14T02:24:40.006Z,24.50
2022-08-14T02:28:24.750Z,24.40
2022-08-14T02:30:00.840Z,24.30
2022-08-14T02:32:36.417Z,24.20
2022-08-14T02:35:10.134Z,24.10
2022-08-14T02:37:48.093Z,24.10
2022-08-14T02:40:18.704Z,24.20
2022-08-14T02:42:55.350Z,24.20
2022-08-14T02:45:32.814Z,24.10
2022-08-14T02:48:01.939Z,24.00
2022-08-14T02:50:29.836Z,24.00
2022-08-14T02:53:03.279Z,24.00
2022-08-14T02:55:32.935Z,24.00
2022-08-14T02:58:03.537Z,23.90
2022-08-14T03:00:35.190Z,23.80
2022-08-14T03:03:07.855Z,23.70
2022-08-14T03:05:41.747Z,23.70
2022-08-14T03:08:15.324Z,23.70
2022-08-14T03:10:49.265Z,23.70
2022-08-14T03:13:21.614Z,23.80
2022-08-14T03:15:54.980Z,23.70
2022-08-14T03:18:31.545Z,23.60
2022-08-14T03:21:02.689Z,23.60
2022-08-14T03:23:34.034Z,23.50
2022-08-14T03:26:08.487Z,23.50
2022-08-14T03:28:37.272Z,23.40
2022-08-14T03:31:13.185Z,23.30
2022-08-14T03:33:41.916Z,23.20
2022-08-14T03:37:51.281Z,23.20
2022-08-14T03:39:11.618Z,23.20
2022-08-14T03:41:48.524Z,23.10
2022-08-14T03:45:19.679Z,23.00
2022-08-14T03:47:04.703Z,23.00
2022-08-14T03:49:34.018Z,23.00
2022-08-14T03:52:17.826Z,23.10
2022-08-14T03:54:53.162Z,23.10
2022-08-14T03:57:22.804Z,23.10
2022-08-14T03:59:51.877Z,23.10
2022-08-14T04:02:37.106Z,23.00
2022-08-14T04:05:12.754Z,23.00
2022-08-14T04:07:50.069Z,22.90
2022-08-14T04:10:32.343Z,22.90
2022-08-14T04:13:03.154Z,22.90
2022-08-14T04:15:32.165Z,22.80
2022-08-14T04:18:20.247Z,22.80
2022-08-14T04:20:51.507Z,22.80
2022-08-14T04:23:29.494Z,22.70
2022-08-14T04:26:01.909Z,22.80
2022-08-14T04:29:07.743Z,22.70
2022-08-14T04:31:25.076Z,22.60
2022-08-14T04:34:10.013Z,22.60
2022-08-14T04:36:59.226Z,22.70
2022-08-14T04:39:46.186Z,22.60
2022-08-14T04:42:32.725Z,22.60
2022-08-14T04:45:01.869Z,22.80
2022-08-14T04:47:47.090Z,22.50
2022-08-14T04:50:33.698Z,22.50
2022-08-14T04:53:05.347Z,22.50
2022-08-14T04:55:33.536Z,22.40
2022-08-14T04:58:02.175Z,22.30
2022-08-14T05:00:31.833Z,22.30
2022-08-14T05:03:03.056Z,22.40
2022-08-14T05:05:35.498Z,22.40
2022-08-14T05:08:09.685Z,22.40
2022-08-14T05:10:42.190Z,22.30
2022-08-14T05:13:15.848Z,22.40
2022-08-14T05:15:46.689Z,22.50
2022-08-14T05:18:37.407Z,22.70
2022-08-14T05:22:00.464Z,22.80
2022-08-14T05:23:55.389Z,22.70
2022-08-14T05:26:23.457Z,22.70
2022-08-14T05:28:51.463Z,22.30
2022-08-14T05:31:21.122Z,22.50
2022-08-14T05:33:56.655Z,22.60
2022-08-14T05:36:25.620Z,22.80
2022-08-14T05:38:55.384Z,22.80
2022-08-14T05:41:23.525Z,22.90
2022-08-14T05:44:11.931Z,22.90
2022-08-14T05:46:41.048Z,23.00
2022-08-14T05:49:10.681Z,23.00
2022-08-14T05:51:41.108Z,22.90
2022-08-14T05:54:12.645Z,23.10
2022-08-14T05:56:41.802Z,23.20
2022-08-14T05:59:10.929Z,23.30
2022-08-14T06:01:38.743Z,23.30
2022-08-14T06:04:07.882Z,23.40
2022-08-14T06:06:38.457Z,23.40
2022-08-14T06:09:09.672Z,23.30
2022-08-14T06:11:38.264Z,23.30
2022-08-14T06:14:12.438Z,23.50
2022-08-14T06:16:49.196Z,23.70
2022-08-14T06:19:23.187Z,23.90
2022-08-14T06:21:58.454Z,23.80
2022-08-14T06:24:27.520Z,23.80
2022-08-14T06:27:04.405Z,24.10
2022-08-14T06:29:34.911Z,24.20
2022-08-14T06:32:36.536Z,24.40
2022-08-14T06:35:04.520Z,24.40
2022-08-14T06:37:42.208Z,24.50
2022-08-14T06:40:25.416Z,24.60
2022-08-14T06:42:55.813Z,24.80
2022-08-14T06:45:26.455Z,24.90
2022-08-14T06:47:55.444Z,25.20
2022-08-14T06:50:30.177Z,25.80
2022-08-14T06:52:59.287Z,26.60
2022-08-14T06:55:28.369Z,27.50
2022-08-14T06:57:58.110Z,28.40
2022-08-14T07:00:30.821Z,29.50
2022-08-14T07:03:17.708Z,30.60
2022-08-14T07:05:57.598Z,31.40
2022-08-14T07:08:31.589Z,32.40
2022-08-14T07:11:03.744Z,33.20
2022-08-14T07:13:32.340Z,33.90
2022-08-14T07:16:05.511Z,34.70
2022-08-14T07:18:36.148Z,34.80
2022-08-14T07:21:07.384Z,35.20
2022-08-14T07:23:40.246Z,35.60
2022-08-14T07:26:13.477Z,36.10
2022-08-14T07:28:43.607Z,36.80
2022-08-14T07:31:12.980Z,36.90
2022-08-14T07:33:45.452Z,37.50
2022-08-14T07:36:27.664Z,37.60
2022-08-14T07:38:59.538Z,37.60
2022-08-14T07:41:34.141Z,38.00
2022-08-14T07:44:32.196Z,38.30
2022-08-14T07:46:51.925Z,38.40
2022-08-14T07:49:20.114Z,38.30
2022-08-14T07:51:50.725Z,38.10
2022-08-14T07:54:23.268Z,38.30
2022-08-14T07:57:00.153Z,38.50
2022-08-14T07:59:42.388Z,39.10
2022-08-14T08:02:19.029Z,39.00
2022-08-14T08:04:50.638Z,39.40
2022-08-14T08:07:29.406Z,39.70
2022-08-14T08:10:00.812Z,39.50
2022-08-14T08:12:32.519Z,39.00
2022-08-14T08:15:07.437Z,39.00
2022-08-14T08:17:38.493Z,39.30
2022-08-14T08:20:20.039Z,39.50
2022-08-14T08:22:55.586Z,39.70
2022-08-14T08:25:24.658Z,40.00
2022-08-14T08:27:59.860Z,40.30
2022-08-14T08:30:29.271Z,40.20
2022-08-14T08:33:01.161Z,40.60
2022-08-14T08:35:46.796Z,40.80
2022-08-14T08:39:18.342Z,40.80
2022-08-14T08:41:11.440Z,40.80
2022-08-14T08:43:46.138Z,41.10
2022-08-14T08:46:21.235Z,40.80
2022-08-14T08:48:52.143Z,40.60
2022-08-14T08:51:25.319Z,40.50
2022-08-14T08:54:03.251Z,40.10
2022-08-14T08:56:42.282Z,40.30
2022-08-14T08:59:22.565Z,40.40
2022-08-14T09:01:58.743Z,40.60
2022-08-14T09:04:29.082Z,40.00
2022-08-14T09:07:09.211Z,40.50
2022-08-14T09:09:54.480Z,41.30
2022-08-14T09:12:32.401Z,41.50
2022-08-14T09:15:02.320Z,41.10
2022-08-14T09:17:30.703Z,41.20
2022-08-14T09:20:01.951Z,41.30
2022-08-14T09:22:34.970Z,41.00
2022-08-14T09:25:07.818Z,41.20
2022-08-14T09:27:36.561Z,41.50
2022-08-14T09:30:30.605Z,41.50
2022-08-14T09:33:22.919Z,41.40
2022-08-14T09:36:04.213Z,41.80
2022-08-14T09:38:47.039Z,41.40
2022-08-14T09:42:17.572Z,41.40
2022-08-14T09:44:42.942Z,41.60
2022-08-14T09:47:15.180Z,42.10
2022-08-14T09:49:43.465Z,42.10
2022-08-14T09:52:32.969Z,40.50
2022-08-14T09:55:02.886Z,40.40
2022-08-14T09:57:32.555Z,40.40
2022-08-14T10:00:30.133Z,40.20
2022-08-14T10:03:05.265Z,40.60
2022-08-14T10:05:39.098Z,39.20
2022-08-14T10:08:25.347Z,38.00
2022-08-14T10:11:01.607Z,38.10
2022-08-14T10:13:42.804Z,38.00
2022-08-14T10:16:21.678Z,38.80
2022-08-14T10:19:02.045Z,38.90
2022-08-14T10:21:30.745Z,38.90
2022-08-14T10:24:08.812Z,39.10
2022-08-14T10:26:38.070Z,37.50
2022-08-14T10:29:19.971Z,37.00
2022-08-14T10:31:59.019Z,37.80
2022-08-14T10:34:35.821Z,37.60
2022-08-14T10:37:14.046Z,37.00
2022-08-14T10:40:01.570Z,37.70
2022-08-14T10:42:37.353Z,38.00
2022-08-14T10:45:20.328Z,36.80
2022-08-14T10:48:09.133Z,36.80
2022-08-14T10:50:45.659Z,36.70
2022-08-14T10:53:15.301Z,37.60
2022-08-14T10:55:45.077Z,38.20
2022-08-14T10:58:15.025Z,37.90
2022-08-14T11:00:58.380Z,36.90
2022-08-14T11:03:35.940Z,37.00
2022-08-14T11:06:19.674Z,36.70
2022-08-14T11:08:50.836Z,36.40
2022-08-14T11:11:19.812Z,36.60
2022-08-14T11:13:50.564Z,36.80
2022-08-14T11:16:19.763Z,37.10
2022-08-14T11:18:50.889Z,36.50
2022-08-14T11:21:21.206Z,36.30
2022-08-14T11:23:53.512Z,36.30
2022-08-14T11:26:24.470Z,36.00
2022-08-14T11:28:53.559Z,36.00
2022-08-14T11:31:24.572Z,36.00
2022-08-14T11:33:57.359Z,36.30
2022-08-14T11:36:57.280Z,36.50
2022-08-14T11:39:33.621Z,36.20
2022-08-14T11:42:55.637Z,36.00
2022-08-14T11:44:53.470Z,36.70
2022-08-14T11:47:25.488Z,37.00
2022-08-14T11:49:54.377Z,36.70
2022-08-14T11:52:22.423Z,35.90
2022-08-14T11:54:58.931Z,35.90
2022-08-14T11:57:26.997Z,35.70
2022-08-14T12:00:05.543Z,36.10
2022-08-14T12:03:11.082Z,36.50
2022-08-14T12:05:33.911Z,36.60
2022-08-14T12:08:11.131Z,36.60
2022-08-14T12:10:43.964Z,36.90
2022-08-14T12:13:13.948Z,36.70
2022-08-14T12:15:46.711Z,36.30
2022-08-14T12:18:19.612Z,36.40
2022-08-14T12:20:52.881Z,36.80
2022-08-14T12:23:23.304Z,36.80
2022-08-14T12:26:31.863Z,36.60
2022-08-14T12:28:59.675Z,36.30
2022-08-14T12:31:28.344Z,36.20
2022-08-14T12:34:10.137Z,35.90
2022-08-14T12:36:38.684Z,36.00
2022-08-14T12:39:19.522Z,36.00
2022-08-14T12:41:53.857Z,35.80
2022-08-14T12:44:31.025Z,35.60
2022-08-14T12:47:06.086Z,35.60
2022-08-14T12:49:35.635Z,35.40
2022-08-14T12:52:16.820Z,35.70
2022-08-14T12:55:01.520Z,36.30
2022-08-14T12:57:39.091Z,36.40
2022-08-14T13:00:23.038Z,35.90
2022-08-14T13:02:55.200Z,35.20
2022-08-14T13:05:29.879Z,35.40
2022-08-14T13:07:59.368Z,35.30
2022-08-14T13:10:47.101Z,35.10
2022-08-14T13:13:18.109Z,35.30
2022-08-14T13:15:47.213Z,35.50
2022-08-14T13:18:16.742Z,35.10
2022-08-14T13:20:51.374Z,35.30
2022-08-14T13:23:31.957Z,35.10
2022-08-14T13:26:00.777Z,34.90
2022-08-14T13:28:33.235Z,34.70
2022-08-14T13:31:03.590Z,34.80
2022-08-14T13:33:37.169Z,34.80
2022-08-14T13:36:24.546Z,34.80
2022-08-14T13:39:00.336Z,34.60
2022-08-14T13:41:31.727Z,34.10
2022-08-14T13:44:04.822Z,34.20
2022-08-14T13:46:36.079Z,34.20
2022-08-14T13:49:12.044Z,34.40
2022-08-14T13:51:48.257Z,34.60
2022-08-14T13:54:19.782Z,34.80
2022-08-14T13:56:49.577Z,35.00
2022-08-14T13:59:20.614Z,34.70
2022-08-14T14:02:07.894Z,34.80
2022-08-14T14:04:41.419Z,35.00
2022-08-14T14:07:13.033Z,35.00
2022-08-14T14:09:52.574Z,35.30
2022-08-14T14:12:36.601Z,35.30
2022-08-14T14:15:11.285Z,35.30
2022-08-14T14:17:40.132Z,35.30
2022-08-14T14:20:15.131Z,35.40
2022-08-14T14:23:09.682Z,35.10
2022-08-14T14:25:48.698Z,34.90
2022-08-14T14:28:31.024Z,34.90
2022-08-14T14:31:01.081Z,35.00
2022-08-14T14:33:49.366Z,35.00
2022-08-14T14:36:21.491Z,35.10
2022-08-14T14:38:54.459Z,34.90
2022-08-14T14:41:24.292Z,34.90
2022-08-14T14:43:54.300Z,34.90
2022-08-14T14:46:35.982Z,34.80
2022-08-14T14:49:07.887Z,34.70
2022-08-14T14:51:41.076Z,34.50
2022-08-14T14:54:13.783Z,34.50
2022-08-14T14:56:50.244Z,34.60
2022-08-14T14:59:20.655Z,34.70
2022-08-14T15:01:51.250Z,34.60
2022-08-14T15:04:20.515Z,34.60
2022-08-14T15:06:49.817Z,34.50
2022-08-14T15:09:20.273Z,34.40
2022-08-14T15:11:48.236Z,34.20
2022-08-14T15:14:55.747Z,34.30
2022-08-14T15:17:06.561Z,34.40
2022-08-14T15:19:35.133Z,34.30
2022-08-14T15:22:03.473Z,34.30
2022-08-14T15:24:32.751Z,34.20
2022-08-14T15:27:06.496Z,34.40
2022-08-14T15:29:39.236Z,34.50
2022-08-14T15:32:11.401Z,34.50
2022-08-14T15:34:51.234Z,34.50
2022-08-14T15:37:22.024Z,34.60
2022-08-14T15:39:52.420Z,34.60
2022-08-14T15:42:22.863Z,34.50
2022-08-14T15:44:57.955Z,34.60
2022-08-14T15:47:31.255Z,34.50
2022-08-14T15:50:01.259Z,34.60
2022-08-14T15:52:32.592Z,34.50
2022-08-14T15:55:06.694Z,34.50
2022-08-14T15:57:35.738Z,34.50
2022-08-14T16:00:40.095Z,34.40
2022-08-14T16:03:14.106Z,34.20
2022-08-14T16:05:43.550Z,34.10
2022-08-14T16:08:27.063Z,34.10
2022-08-14T16:11:02.169Z,34.00
2022-08-14T16:13:41.975Z,34.00
2022-08-14T16:16:50.825Z,34.00
2022-08-14T16:19:10.173Z,33.90
2022-08-14T16:21:41.017Z,33.90
2022-08-14T16:24:32.950Z,33.90
2022-08-14T16:27:03.359Z,33.90
2022-08-14T16:29:38.935Z,33.70
2022-08-14T16:32:33.580Z,33.70
2022-08-14T16:34:57.362Z,33.70
2022-08-14T16:37:31.892Z,33.70
2022-08-14T16:40:02.526Z,33.70
2022-08-14T16:42:38.668Z,33.70
2022-08-14T16:45:25.942Z,33.70
2022-08-14T16:47:54.365Z,33.70
2022-08-14T16:50:43.495Z,33.60
2022-08-14T16:53:10.401Z,33.40
2022-08-14T16:55:53.723Z,33.40
2022-08-14T16:58:29.911Z,33.40
2022-08-14T17:01:23.229Z,33.40
2022-08-14T17:03:56.534Z,33.30
2022-08-14T17:06:49.491Z,33.40
2022-08-14T17:09:43.472Z,33.30
2022-08-14T17:12:31.452Z,33.30
2022-08-14T17:15:10.777Z,33.30
2022-08-14T17:17:58.014Z,33.20
2022-08-14T17:20:39.467Z,33.20
2022-08-14T17:23:16.867Z,33.20
2022-08-14T17:25:50.813Z,33.20
2022-08-14T17:28:51.445Z,33.10
2022-08-14T17:31:12.265Z,33.10
2022-08-14T17:33:44.725Z,32.90
2022-08-14T17:36:22.022Z,32.70
2022-08-14T17:39:06.343Z,32.70
2022-08-14T17:41:38.485Z,32.60
2022-08-14T17:44:34.129Z,32.60
2022-08-14T17:47:18.125Z,32.70
2022-08-14T17:49:52.257Z,32.60
2022-08-14T17:52:36.374Z,32.50
2022-08-14T17:56:01.866Z,32.40
2022-08-14T17:58:01.337Z,32.40
2022-08-14T18:00:50.997Z,32.30
2022-08-14T18:03:46.769Z,32.10
2022-08-14T18:06:39.329Z,32.00
2022-08-14T18:08:59.604Z,32.00
2022-08-14T18:11:45.629Z,31.90
2022-08-14T18:14:31.366Z,31.90
2022-08-14T18:17:02.621Z,31.80
2022-08-14T18:19:35.188Z,31.70
2022-08-14T18:22:05.757Z,31.50
2022-08-14T18:24:53.808Z,31.50
2022-08-14T18:27:24.571Z,31.40
2022-08-14T18:29:55.944Z,31.40
2022-08-14T18:32:47.466Z,31.30
2022-08-14T18:35:45.925Z,31.20
2022-08-14T18:38:25.972Z,31.20
2022-08-14T18:41:36.802Z,31.10
2022-08-14T18:44:12.762Z,31.00
2022-08-14T18:48:03.352Z,30.90
2022-08-14T18:50:27.913Z,30.80
2022-08-14T18:53:07.159Z,30.70
2022-08-14T18:55:53.703Z,30.60
2022-08-14T18:58:30.940Z,30.50
2022-08-14T19:01:01.981Z,30.30
2022-08-14T19:03:55.924Z,30.00
2022-08-14T19:06:56.424Z,29.80
2022-08-14T19:09:53.616Z,29.60
2022-08-14T19:13:00.262Z,29.50
2022-08-14T19:15:31.562Z,29.40
2022-08-14T19:18:15.134Z,29.40
2022-08-14T19:20:52.823Z,29.30
2022-08-14T19:23:42.447Z,29.30
2022-08-14T19:26:35.716Z,29.20
2022-08-14T19:29:24.188Z,29.10
2022-08-14T19:31:59.026Z,29.10
2022-08-14T19:34:52.658Z,29.00
2022-08-14T19:37:47.264Z,29.00
2022-08-14T19:40:30.121Z,28.90
2022-08-14T19:42:59.311Z,28.70
2022-08-14T19:45:30.063Z,28.70
2022-08-14T19:48:01.955Z,28.60
2022-08-14T19:50:40.898Z,28.50
2022-08-14T19:53:16.496Z,28.30
2022-08-14T19:55:59.401Z,28.20
2022-08-14T19:58:55.231Z,28.10
2022-08-14T20:01:36.953Z,28.00
2022-08-14T20:04:46.837Z,27.90
2022-08-14T20:06:57.122Z,28.00
2022-08-14T20:11:07.361Z,28.00
2022-08-14T20:12:28.698Z,28.00
2022-08-14T20:15:08.863Z,28.00
2022-08-14T20:17:40.187Z,28.10
2022-08-14T20:20:16.324Z,28.10
2022-08-14T20:22:58.611Z,28.10
2022-08-14T20:25:36.360Z,28.20
2022-08-14T20:28:30.384Z,28.30
2022-08-14T20:31:13.865Z,28.30
2022-08-14T20:34:03.222Z,28.30
2022-08-14T20:36:31.879Z,28.30
2022-08-14T20:39:00.567Z,28.30
2022-08-14T20:41:28.496Z,28.20
2022-08-14T20:44:15.890Z,28.20
2022-08-14T20:46:49.902Z,28.00
2022-08-14T20:49:19.117Z,27.80
2022-08-14T20:51:58.636Z,27.80
2022-08-14T20:54:33.593Z,27.70
2022-08-14T20:57:07.795Z,27.60
2022-08-14T20:59:43.458Z,27.50
2022-08-14T21:02:29.297Z,27.50
2022-08-14T21:05:00.504Z,27.40
2022-08-14T21:07:36.637Z,27.40
2022-08-14T21:10:33.349Z,27.40
2022-08-14T21:13:25.984Z,27.40
2022-08-14T21:15:56.836Z,27.50
2022-08-14T21:18:28.937Z,27.40
2022-08-14T21:20:59.305Z,27.40
2022-08-14T21:23:32.413Z,27.30
2022-08-14T21:26:01.426Z,27.20
2022-08-14T21:28:35.064Z,27.20
2022-08-14T21:31:04.041Z,27.20
2022-08-14T21:33:34.181Z,27.20
2022-08-14T21:36:07.534Z,27.20
2022-08-14T21:38:36.439Z,27.20
2022-08-14T21:41:43.085Z,27.10
2022-08-14T21:44:18.347Z,27.00
2022-08-14T21:46:50.512Z,27.00
2022-08-14T21:49:22.376Z,27.00
2022-08-14T21:51:57.792Z,27.00
2022-08-14T21:54:49.273Z,26.90
2022-08-14T21:57:56.596Z,26.90
2022-08-14T22:00:35.217Z,26.90
2022-08-14T22:03:03.503Z,26.90
2022-08-14T22:05:33.167Z,26.80
2022-08-14T22:08:03.100Z,26.70
2022-08-14T22:10:33.752Z,26.70
2022-08-14T22:13:02.158Z,26.70
2022-08-14T22:15:31.542Z,26.70
2022-08-14T22:18:02.230Z,26.60
2022-08-14T22:20:32.423Z,26.60
2022-08-14T22:23:05.548Z,26.70
2022-08-14T22:25:41.128Z,26.70
2022-08-14T22:28:12.029Z,26.60
2022-08-14T22:30:41.627Z,26.50
2022-08-14T22:33:13.304Z,26.50
2022-08-14T22:35:41.841Z,26.40
2022-08-14T22:38:37.781Z,26.40
2022-08-14T22:41:25.621Z,26.40
2022-08-14T22:43:48.163Z,26.30
2022-08-14T22:46:20.634Z,26.30
2022-08-14T22:48:50.867Z,26.30
2022-08-14T22:51:22.425Z,26.30
2022-08-14T22:53:54.720Z,26.30
2022-08-14T22:56:29.203Z,26.30
2022-08-14T22:58:59.054Z,26.30
2022-08-14T23:01:46.118Z,26.20
2022-08-14T23:04:34.929Z,26.20
2022-08-14T23:07:21.662Z,26.10
2022-08-14T23:09:56.767Z,25.90
2022-08-14T23:12:31.728Z,25.90
2022-08-14T23:15:02.729Z,25.90
2022-08-14T23:17:39.200Z,25.90
2022-08-14T23:20:19.243Z,26.00
2022-08-14T23:22:51.167Z,26.00
2022-08-14T23:25:45.833Z,25.90
2022-08-14T23:28:34.589Z,25.90
2022-08-14T23:31:06.097Z,25.90
2022-08-14T23:33:42.246Z,25.90
2022-08-14T23:36:32.756Z,25.90
2022-08-14T23:39:10.423Z,25.80
2022-08-14T23:41:46.576Z,25.70
2022-08-14T23:44:21.592Z,25.70
2022-08-14T23:46:52.778Z,25.70
2022-08-14T23:49:25.474Z,25.70
2022-08-14T23:52:49.481Z,25.70
2022-08-14T23:54:48.043Z,25.70
2022-08-14T23:57:19.585Z,25.80
2022-08-14T23:59:54.707Z,25.80
